Finningley, United Kingdom
Current Conditions -  °F | °C
As of 5:20 AM on Monday 20 Oct 2014 (Local Time) from EGCN Reporting Station
Clear Clear  
Wind Chill: 52°   Ceiling: Unl
Heat Index: 52°   Visibility: 6mi
Dew Point: 48°   Wind: 10mph
Humidity: 88%   Direction: 230°SW
Pressure: 29.91"   Gusts: NA
Location:  53.49°N, 0.99°W
Report Text: EGCN 200420Z 23009KT CAVOK 11/09 Q1013
Loading
Personal Weather Stations






























Interactive Weather Map
Tropical Storm Tracking
New forecast layout! Learn more

10-Day Weather Forecast

Advertisements
Track Severe Weather on mobile